createdAt,value
2019-03-29T00:00:08.762Z,45.70
2019-03-29T00:02:39.749Z,45.56
2019-03-29T00:05:10.779Z,45.28
2019-03-29T00:07:42.179Z,45.37
2019-03-29T00:10:13.383Z,45.31
2019-03-29T00:12:44.354Z,45.19
2019-03-29T00:15:15.482Z,45.47
2019-03-29T00:17:46.468Z,45.32
2019-03-29T00:20:17.483Z,45.51
2019-03-29T00:22:48.464Z,45.40
2019-03-29T00:25:19.439Z,45.69
2019-03-29T00:27:50.481Z,45.37
2019-03-29T00:30:22.117Z,45.66
2019-03-29T00:32:53.317Z,45.70
2019-03-29T00:35:24.349Z,45.98
2019-03-29T00:37:55.861Z,46.07
2019-03-29T00:40:27.069Z,46.05
2019-03-29T00:42:58.096Z,46.22
2019-03-29T00:45:29.071Z,45.88
2019-03-29T00:48:00.087Z,46.07
2019-03-29T00:50:31.082Z,45.79
2019-03-29T00:53:02.111Z,45.91
2019-03-29T00:55:33.094Z,45.85
2019-03-29T00:58:04.124Z,45.96
2019-03-29T01:00:35.163Z,45.90
2019-03-29T01:03:06.256Z,45.86
2019-03-29T01:05:37.274Z,45.66
2019-03-29T01:08:10.430Z,45.53
2019-03-29T01:10:41.502Z,45.53
2019-03-29T01:13:12.517Z,46.39
2019-03-29T01:15:43.603Z,47.74
2019-03-29T01:18:14.588Z,47.85
2019-03-29T01:20:45.580Z,48.47
2019-03-29T01:23:16.607Z,47.51
2019-03-29T01:25:47.579Z,47.69
2019-03-29T01:28:18.553Z,47.44
2019-03-29T01:30:49.575Z,47.81
2019-03-29T01:33:20.573Z,48.11
2019-03-29T01:35:51.653Z,48.36
2019-03-29T01:38:24.327Z,48.49
2019-03-29T01:40:55.364Z,48.49
2019-03-29T01:43:26.380Z,48.44
2019-03-29T01:45:57.359Z,48.88
2019-03-29T01:48:28.387Z,48.37
2019-03-29T01:50:59.479Z,48.90
2019-03-29T01:53:30.507Z,48.41
2019-03-29T01:56:01.551Z,48.42
2019-03-29T01:58:32.592Z,48.64
2019-03-29T02:01:03.728Z,48.64
2019-03-29T02:03:34.716Z,48.98
2019-03-29T02:06:05.843Z,49.13
2019-03-29T02:08:37.832Z,48.75
2019-03-29T02:11:09.087Z,48.91
2019-03-29T02:13:40.106Z,48.44
2019-03-29T02:16:11.088Z,48.18
2019-03-29T02:18:42.118Z,48.50
2019-03-29T02:21:13.417Z,48.54
2019-03-29T02:23:44.396Z,48.33
2019-03-29T02:26:15.437Z,48.58
2019-03-29T02:28:46.472Z,48.41
2019-03-29T02:31:17.475Z,48.46
2019-03-29T02:33:48.936Z,48.24
2019-03-29T02:36:19.899Z,48.24
2019-03-29T02:38:55.609Z,48.10
2019-03-29T02:41:23.616Z,48.05
2019-03-29T02:43:54.660Z,48.20
2019-03-29T02:46:26.176Z,48.22
2019-03-29T02:48:57.190Z,48.32
2019-03-29T02:51:28.237Z,48.19
2019-03-29T02:53:59.244Z,48.51
2019-03-29T02:56:30.291Z,48.54
2019-03-29T02:59:01.293Z,48.50
2019-03-29T03:01:32.335Z,48.14
2019-03-29T03:04:03.553Z,49.69
2019-03-29T03:06:34.593Z,49.75
2019-03-29T03:09:13.775Z,50.18
2019-03-29T03:11:39.572Z,50.18
2019-03-29T03:14:10.605Z,50.62
2019-03-29T03:16:44.802Z,50.39
2019-03-29T03:19:15.803Z,49.67
2019-03-29T03:21:46.896Z,49.85
2019-03-29T03:24:17.938Z,49.57
2019-03-29T03:26:48.935Z,49.47
2019-03-29T03:29:19.986Z,49.71
2019-03-29T03:31:50.988Z,49.69
2019-03-29T03:34:22.026Z,49.52
2019-03-29T03:36:53.070Z,49.52
2019-03-29T03:39:31.885Z,49.15
2019-03-29T03:41:56.843Z,49.30
2019-03-29T03:44:27.850Z,49.39
2019-03-29T03:46:58.893Z,49.29
2019-03-29T03:49:29.940Z,49.46
2019-03-29T03:52:01.422Z,49.38
2019-03-29T03:54:32.561Z,49.38
2019-03-29T03:57:03.968Z,49.74
2019-03-29T03:59:37.034Z,50.46
2019-03-29T04:02:07.993Z,49.78
2019-03-29T04:04:39.013Z,50.18
2019-03-29T04:07:10.068Z,50.30
2019-03-29T04:09:49.630Z,50.50
2019-03-29T04:12:13.817Z,50.50
2019-03-29T04:14:44.865Z,49.71
2019-03-29T04:17:15.866Z,50.47
2019-03-29T04:19:47.038Z,50.47
2019-03-29T04:22:18.043Z,51.82
2019-03-29T04:24:49.082Z,52.47
2019-03-29T04:27:20.082Z,53.14
2019-03-29T04:29:51.127Z,53.14
2019-03-29T04:32:22.158Z,52.58
2019-03-29T04:34:53.210Z,52.49
2019-03-29T04:37:24.221Z,52.44
2019-03-29T04:40:06.941Z,52.21
2019-03-29T04:42:27.962Z,52.02
2019-03-29T04:44:59.983Z,51.09
2019-03-29T04:47:31.133Z,51.09
2019-03-29T04:50:02.209Z,51.14
2019-03-29T04:52:33.202Z,50.83
2019-03-29T04:55:04.302Z,50.51
2019-03-29T04:57:35.378Z,49.94
2019-03-29T05:00:06.594Z,49.63
2019-03-29T05:02:37.637Z,49.18
2019-03-29T05:05:08.786Z,48.75
2019-03-29T05:07:39.769Z,48.44
2019-03-29T05:10:21.153Z,48.48
2019-03-29T05:12:43.739Z,47.65
2019-03-29T05:15:14.881Z,47.82
2019-03-29T05:17:45.905Z,48.25
2019-03-29T05:20:17.002Z,48.56
2019-03-29T05:22:47.998Z,48.06
2019-03-29T05:25:19.033Z,48.06
2019-03-29T05:27:50.070Z,47.47
2019-03-29T05:30:21.058Z,47.47
2019-03-29T05:32:52.142Z,47.38
2019-03-29T05:35:23.340Z,47.69
2019-03-29T05:37:54.342Z,47.44
2019-03-29T05:40:34.737Z,47.06
2019-03-29T05:42:58.075Z,46.68
2019-03-29T05:45:29.119Z,46.83
2019-03-29T05:48:00.174Z,46.38
2019-03-29T05:50:31.184Z,45.90
2019-03-29T05:53:02.218Z,45.68
2019-03-29T05:55:33.274Z,44.71
2019-03-29T05:58:04.308Z,44.56
2019-03-29T06:00:35.441Z,44.46
2019-03-29T06:03:09.822Z,44.06
2019-03-29T06:05:39.159Z,43.89
2019-03-29T06:08:10.143Z,43.70
2019-03-29T06:10:49.034Z,42.75
2019-03-29T06:13:13.892Z,42.59
2019-03-29T06:15:44.937Z,42.11
2019-03-29T06:18:15.966Z,41.94
2019-03-29T06:20:48.080Z,41.55
2019-03-29T06:23:19.142Z,41.16
2019-03-29T06:25:50.148Z,40.60
2019-03-29T06:28:21.199Z,40.33
2019-03-29T06:30:52.212Z,39.36
2019-03-29T06:33:24.406Z,38.59
2019-03-29T06:35:58.019Z,37.66
2019-03-29T06:38:31.104Z,37.33
2019-03-29T06:41:03.598Z,37.00
2019-03-29T06:43:34.925Z,36.23
2019-03-29T06:46:06.102Z,36.06
2019-03-29T06:48:37.109Z,35.50
2019-03-29T06:51:08.274Z,35.46
2019-03-29T06:53:39.286Z,35.44
2019-03-29T06:56:10.439Z,35.13
2019-03-29T06:58:41.444Z,35.28
2019-03-29T07:01:12.487Z,34.65
2019-03-29T07:03:43.495Z,35.20
2019-03-29T07:06:14.574Z,34.73
2019-03-29T07:08:45.611Z,33.88
2019-03-29T07:11:18.077Z,34.20
2019-03-29T07:13:57.200Z,34.08
2019-03-29T07:16:22.177Z,33.92
2019-03-29T07:18:53.297Z,33.67
2019-03-29T07:21:24.388Z,34.04
2019-03-29T07:23:55.416Z,34.27
2019-03-29T07:26:26.438Z,34.25
2019-03-29T07:28:57.507Z,34.00
2019-03-29T07:31:28.517Z,33.62
2019-03-29T07:33:59.643Z,33.54
2019-03-29T07:36:30.659Z,32.66
2019-03-29T07:39:01.684Z,32.63
2019-03-29T07:41:32.792Z,32.19
2019-03-29T07:44:04.010Z,31.54
2019-03-29T07:46:35.012Z,31.27
2019-03-29T07:49:06.153Z,31.39
2019-03-29T07:51:37.190Z,31.03
2019-03-29T07:54:08.233Z,30.42
2019-03-29T07:56:39.546Z,30.08
2019-03-29T07:59:10.666Z,30.43
2019-03-29T08:01:41.660Z,30.43
2019-03-29T08:04:12.746Z,30.26
2019-03-29T08:06:46.436Z,30.42
2019-03-29T08:09:22.304Z,30.28
2019-03-29T08:11:49.245Z,29.50
2019-03-29T08:14:20.239Z,29.40
2019-03-29T08:16:51.238Z,29.06
2019-03-29T08:19:22.323Z,28.94
2019-03-29T08:21:53.358Z,27.57
2019-03-29T08:24:24.409Z,27.14
2019-03-29T08:26:55.473Z,27.56
2019-03-29T08:29:26.491Z,26.72
2019-03-29T08:31:57.746Z,27.41
2019-03-29T08:34:28.781Z,26.98
2019-03-29T08:36:59.922Z,26.33
2019-03-29T08:39:30.978Z,26.22
2019-03-29T08:42:02.074Z,25.98
2019-03-29T08:44:33.116Z,26.32
2019-03-29T08:47:04.519Z,24.89
2019-03-29T08:49:35.544Z,24.95
2019-03-29T08:52:06.587Z,25.09
2019-03-29T08:54:37.604Z,25.32
2019-03-29T08:57:10.632Z,24.78
2019-03-29T08:59:41.419Z,24.38
2019-03-29T09:02:12.446Z,24.35
2019-03-29T09:04:43.452Z,24.24
2019-03-29T09:07:14.617Z,23.92
2019-03-29T09:09:46.597Z,24.56
2019-03-29T09:12:17.878Z,24.18
2019-03-29T09:14:48.856Z,24.52
2019-03-29T09:17:19.834Z,24.05
2019-03-29T09:19:50.869Z,23.66
2019-03-29T09:22:21.858Z,24.35
2019-03-29T09:24:52.899Z,23.69
2019-03-29T09:27:23.885Z,24.26
2019-03-29T09:29:54.987Z,23.83
2019-03-29T09:32:25.959Z,23.86
2019-03-29T09:34:56.989Z,23.72
2019-03-29T09:37:28.147Z,23.74
2019-03-29T09:39:59.235Z,23.92
2019-03-29T09:42:30.858Z,23.60
2019-03-29T09:45:02.447Z,23.93
2019-03-29T09:47:39.866Z,23.50
2019-03-29T09:50:10.076Z,23.13
2019-03-29T09:52:40.052Z,23.52
2019-03-29T09:55:11.281Z,22.99
2019-03-29T09:57:42.260Z,22.90
2019-03-29T10:00:20.920Z,23.12
2019-03-29T10:02:46.866Z,23.08
2019-03-29T10:05:20.051Z,23.11
2019-03-29T10:07:50.563Z,22.95
2019-03-29T10:10:21.688Z,23.44
2019-03-29T10:12:52.822Z,23.47
2019-03-29T10:15:23.805Z,22.88
2019-03-29T10:17:54.837Z,23.07
2019-03-29T10:20:25.820Z,23.04
2019-03-29T10:22:56.846Z,22.88
2019-03-29T10:25:28.445Z,22.67
2019-03-29T10:27:59.461Z,22.76
2019-03-29T10:30:41.532Z,23.20
2019-03-29T10:33:12.652Z,22.69
2019-03-29T10:35:52.163Z,22.83
2019-03-29T10:38:18.491Z,23.29
2019-03-29T10:40:49.282Z,22.90
2019-03-29T10:43:20.418Z,22.92
2019-03-29T10:45:51.430Z,22.95
2019-03-29T10:48:22.403Z,22.95
2019-03-29T10:50:53.465Z,23.02
2019-03-29T10:53:24.485Z,23.28
2019-03-29T10:55:55.515Z,23.80
2019-03-29T10:58:26.502Z,23.79
2019-03-29T11:00:57.623Z,23.51
2019-03-29T11:03:28.994Z,23.15
2019-03-29T11:06:00.000Z,23.16
2019-03-29T11:08:31.073Z,23.50
2019-03-29T11:11:02.107Z,23.25
2019-03-29T11:13:33.089Z,22.81
2019-03-29T11:16:04.422Z,23.00
2019-03-29T11:18:35.449Z,22.95
2019-03-29T11:21:06.629Z,22.79
2019-03-29T11:23:37.693Z,22.55
2019-03-29T11:26:08.694Z,22.57
2019-03-29T11:28:39.733Z,22.74
2019-03-29T11:31:10.911Z,22.70
2019-03-29T11:33:41.938Z,23.24
2019-03-29T11:36:12.939Z,22.62
2019-03-29T11:38:44.085Z,22.66
2019-03-29T11:41:15.259Z,22.50
2019-03-29T11:43:46.234Z,22.71
2019-03-29T11:46:17.342Z,22.33
2019-03-29T11:48:48.464Z,22.16
2019-03-29T11:51:20.184Z,22.18
2019-03-29T11:53:52.235Z,22.47
2019-03-29T11:56:23.255Z,22.65
2019-03-29T11:58:54.329Z,22.43
2019-03-29T12:01:25.494Z,22.43
2019-03-29T12:03:56.517Z,22.50
2019-03-29T12:06:27.518Z,22.50
2019-03-29T12:08:58.547Z,22.26
2019-03-29T12:11:29.630Z,22.35
2019-03-29T12:14:00.613Z,22.24
2019-03-29T12:16:31.694Z,22.06
2019-03-29T12:19:02.742Z,22.05
2019-03-29T12:21:33.738Z,22.07
2019-03-29T12:24:04.928Z,22.01
2019-03-29T12:26:35.933Z,21.95
2019-03-29T12:29:06.938Z,21.81
2019-03-29T12:31:37.991Z,22.50
2019-03-29T12:34:09.027Z,22.40
2019-03-29T12:36:40.103Z,22.59
2019-03-29T12:39:11.106Z,22.49
2019-03-29T12:41:42.130Z,22.53
2019-03-29T12:44:13.165Z,22.81
2019-03-29T12:46:44.195Z,23.03
2019-03-29T12:49:15.253Z,23.17
2019-03-29T12:51:46.895Z,23.43
2019-03-29T12:54:18.312Z,23.47
2019-03-29T12:56:49.298Z,23.44
2019-03-29T12:59:21.063Z,23.56
2019-03-29T13:01:52.165Z,23.58
2019-03-29T13:04:24.084Z,23.75
2019-03-29T13:06:55.101Z,23.79
2019-03-29T13:09:26.072Z,23.61
2019-03-29T13:11:58.070Z,23.88
2019-03-29T13:14:29.184Z,23.84
2019-03-29T13:17:02.785Z,23.45
2019-03-29T13:19:32.999Z,23.75
2019-03-29T13:22:05.459Z,23.85
2019-03-29T13:24:36.473Z,24.17
2019-03-29T13:27:07.612Z,24.19
2019-03-29T13:29:38.668Z,24.71
2019-03-29T13:32:09.644Z,24.59
2019-03-29T13:34:40.664Z,24.48
2019-03-29T13:37:11.684Z,24.39
2019-03-29T13:39:42.930Z,24.52
2019-03-29T13:42:14.086Z,24.83
2019-03-29T13:44:45.193Z,24.62
2019-03-29T13:47:17.941Z,24.43
2019-03-29T13:49:48.995Z,24.62
2019-03-29T13:52:20.394Z,24.86
2019-03-29T13:54:51.418Z,24.80
2019-03-29T13:57:22.457Z,25.14
2019-03-29T13:59:53.533Z,25.06
2019-03-29T14:02:24.592Z,25.06
2019-03-29T14:04:55.722Z,25.14
2019-03-29T14:07:26.776Z,25.38
2019-03-29T14:09:57.773Z,25.32
2019-03-29T14:12:28.821Z,25.65
2019-03-29T14:15:01.306Z,25.30
2019-03-29T14:17:32.547Z,25.58
2019-03-29T14:20:03.547Z,25.63
2019-03-29T14:22:34.633Z,25.69
2019-03-29T14:25:05.885Z,25.51
2019-03-29T14:27:36.936Z,25.65
2019-03-29T14:30:08.638Z,25.94
2019-03-29T14:32:39.697Z,25.66
2019-03-29T14:35:10.919Z,25.82
2019-03-29T14:37:41.962Z,25.85
2019-03-29T14:40:14.160Z,26.32
2019-03-29T14:42:45.171Z,25.85
2019-03-29T14:45:16.348Z,25.97
2019-03-29T14:47:47.685Z,26.21
2019-03-29T14:50:18.788Z,26.16
2019-03-29T14:52:49.851Z,26.37
2019-03-29T14:55:20.860Z,26.22
2019-03-29T14:57:51.902Z,25.65
2019-03-29T15:00:51.301Z,25.59
2019-03-29T15:03:22.357Z,25.83
2019-03-29T15:05:53.561Z,25.62
2019-03-29T15:08:24.774Z,25.73
2019-03-29T15:10:55.858Z,26.29
2019-03-29T15:13:26.973Z,26.55
2019-03-29T15:15:58.016Z,26.46
2019-03-29T15:18:29.036Z,26.62
2019-03-29T15:21:00.068Z,26.60
2019-03-29T15:23:31.097Z,26.72
2019-03-29T15:26:02.129Z,26.86
2019-03-29T15:28:33.197Z,26.75
2019-03-29T15:31:04.381Z,26.58
2019-03-29T15:33:35.772Z,26.86
2019-03-29T15:36:07.148Z,26.92
2019-03-29T15:38:38.161Z,26.93
2019-03-29T15:41:09.170Z,26.54
2019-03-29T15:43:40.218Z,26.85
2019-03-29T15:46:11.300Z,27.05
2019-03-29T15:48:42.392Z,27.26
2019-03-29T15:51:13.401Z,27.73
2019-03-29T15:53:44.482Z,28.13
2019-03-29T15:56:16.136Z,28.22
2019-03-29T15:58:47.153Z,28.28
2019-03-29T16:01:18.145Z,27.89
2019-03-29T16:03:49.193Z,28.16
2019-03-29T16:06:20.199Z,28.24
2019-03-29T16:08:51.246Z,28.47
2019-03-29T16:11:24.785Z,28.44
2019-03-29T16:13:55.947Z,28.71
2019-03-29T16:16:27.033Z,28.97
2019-03-29T16:18:58.069Z,29.14
2019-03-29T16:21:29.074Z,29.46
2019-03-29T16:24:00.114Z,29.78
2019-03-29T16:26:31.137Z,29.89
2019-03-29T16:29:02.174Z,29.97
2019-03-29T16:31:33.213Z,30.14
2019-03-29T16:34:04.336Z,30.18
2019-03-29T16:36:35.367Z,30.33
2019-03-29T16:39:08.536Z,30.25
2019-03-29T16:41:39.571Z,30.19
2019-03-29T16:44:10.578Z,30.32
2019-03-29T16:46:41.725Z,30.80
2019-03-29T16:49:12.719Z,30.95
2019-03-29T16:51:43.710Z,30.89
2019-03-29T16:54:14.736Z,30.88
2019-03-29T16:56:45.753Z,30.84
2019-03-29T16:59:16.747Z,30.91
2019-03-29T17:01:51.048Z,31.15
2019-03-29T17:04:20.454Z,31.18
2019-03-29T17:06:51.549Z,31.57
2019-03-29T17:09:22.542Z,31.84
2019-03-29T17:11:53.594Z,32.00
2019-03-29T17:14:24.595Z,32.36
2019-03-29T17:16:55.700Z,32.48
2019-03-29T17:19:26.842Z,32.68
2019-03-29T17:21:57.855Z,32.86
2019-03-29T17:24:28.899Z,33.22
2019-03-29T17:26:59.891Z,33.50
2019-03-29T17:29:30.882Z,33.57
2019-03-29T17:32:01.914Z,33.54
2019-03-29T17:34:32.964Z,33.56
2019-03-29T17:37:03.947Z,33.95
2019-03-29T17:39:34.933Z,34.17
2019-03-29T17:42:05.966Z,34.04
2019-03-29T17:44:36.961Z,34.27
2019-03-29T17:47:07.988Z,34.43
2019-03-29T17:49:39.013Z,34.35
2019-03-29T17:52:10.002Z,34.55
2019-03-29T17:54:41.032Z,34.66
2019-03-29T17:57:12.023Z,34.80
2019-03-29T17:59:43.057Z,34.81
2019-03-29T18:02:14.163Z,34.71
2019-03-29T18:04:45.153Z,34.86
2019-03-29T18:07:16.182Z,34.79
2019-03-29T18:09:47.173Z,34.92
2019-03-29T18:12:18.211Z,35.08
2019-03-29T18:14:49.237Z,35.01
2019-03-29T18:17:20.247Z,35.08
2019-03-29T18:19:51.292Z,35.05
2019-03-29T18:22:22.281Z,35.18
2019-03-29T18:24:53.268Z,35.37
2019-03-29T18:27:24.334Z,35.47
2019-03-29T18:29:55.362Z,35.35
2019-03-29T18:32:26.376Z,35.68
2019-03-29T18:34:57.473Z,35.74
2019-03-29T18:37:29.405Z,35.79
2019-03-29T18:40:00.552Z,35.92
2019-03-29T18:42:31.500Z,36.14
2019-03-29T18:45:02.533Z,35.95
2019-03-29T18:47:33.575Z,35.85
2019-03-29T18:50:05.171Z,35.75
2019-03-29T18:52:36.389Z,35.85
2019-03-29T18:55:07.695Z,36.06
2019-03-29T18:57:38.729Z,35.79
2019-03-29T19:00:10.831Z,36.01
2019-03-29T19:02:41.870Z,36.03
2019-03-29T19:05:21.408Z,35.94
2019-03-29T19:07:52.546Z,35.82
2019-03-29T19:10:23.737Z,35.61
2019-03-29T19:12:54.868Z,35.53
2019-03-29T19:15:25.950Z,35.37
2019-03-29T19:17:57.176Z,35.42
2019-03-29T19:20:28.498Z,35.73
2019-03-29T19:22:59.484Z,35.79
2019-03-29T19:25:30.567Z,35.90
2019-03-29T19:28:01.571Z,36.22
2019-03-29T19:30:32.613Z,36.16
2019-03-29T19:33:03.622Z,36.19
2019-03-29T19:35:34.676Z,36.12
2019-03-29T19:38:06.150Z,36.20
2019-03-29T19:40:37.170Z,36.68
2019-03-29T19:43:08.223Z,36.73
2019-03-29T19:45:39.266Z,37.00
2019-03-29T19:48:10.419Z,37.00
2019-03-29T19:50:41.417Z,37.22
2019-03-29T19:53:12.459Z,37.01
2019-03-29T19:55:43.498Z,37.40
2019-03-29T19:58:14.640Z,37.42
2019-03-29T20:00:45.976Z,37.36
2019-03-29T20:03:16.945Z,37.33
2019-03-29T20:05:48.339Z,37.53
2019-03-29T20:08:19.470Z,37.56
2019-03-29T20:10:50.575Z,37.74
2019-03-29T20:13:21.614Z,37.83
2019-03-29T20:15:52.612Z,38.17
2019-03-29T20:18:23.652Z,38.41
2019-03-29T20:20:54.659Z,38.36
2019-03-29T20:23:25.702Z,38.30
2019-03-29T20:25:56.726Z,38.18
2019-03-29T20:28:27.740Z,38.45
2019-03-29T20:30:58.756Z,38.81
2019-03-29T20:33:29.754Z,38.59
2019-03-29T20:36:00.880Z,38.92
2019-03-29T20:38:31.867Z,38.90
2019-03-29T20:41:02.899Z,38.54
2019-03-29T20:43:33.876Z,38.87
2019-03-29T20:46:04.998Z,38.89
2019-03-29T20:48:36.000Z,38.74
2019-03-29T20:51:06.985Z,39.08
2019-03-29T20:53:38.006Z,39.06
2019-03-29T20:56:09.015Z,38.95
2019-03-29T20:58:40.045Z,38.86
2019-03-29T21:01:11.027Z,38.91
2019-03-29T21:03:42.008Z,39.08
2019-03-29T21:06:13.026Z,39.48
2019-03-29T21:08:44.060Z,39.49
2019-03-29T21:11:15.061Z,39.82
2019-03-29T21:13:46.184Z,40.17
2019-03-29T21:16:17.254Z,40.45
2019-03-29T21:18:48.299Z,41.07
2019-03-29T21:21:19.276Z,42.00
2019-03-29T21:23:50.294Z,42.92
2019-03-29T21:26:21.283Z,43.54
2019-03-29T21:28:53.018Z,44.15
2019-03-29T21:31:24.169Z,44.08
2019-03-29T21:33:55.147Z,44.38
2019-03-29T21:36:26.270Z,44.51
2019-03-29T21:38:57.256Z,45.02
2019-03-29T21:41:28.273Z,45.00
2019-03-29T21:43:59.261Z,45.61
2019-03-29T21:46:30.289Z,46.13
2019-03-29T21:49:01.271Z,46.35
2019-03-29T21:51:32.267Z,46.45
2019-03-29T21:54:03.287Z,46.68
2019-03-29T21:56:34.263Z,46.79
2019-03-29T21:59:05.287Z,47.35
2019-03-29T22:01:36.413Z,47.39
2019-03-29T22:04:07.395Z,47.81
2019-03-29T22:06:38.380Z,47.99
2019-03-29T22:09:09.611Z,48.81
2019-03-29T22:11:40.605Z,49.14
2019-03-29T22:14:11.623Z,49.43
2019-03-29T22:16:42.799Z,49.76
2019-03-29T22:19:13.788Z,49.71
2019-03-29T22:21:44.770Z,49.75
2019-03-29T22:24:15.798Z,49.52
2019-03-29T22:26:47.173Z,49.58
2019-03-29T22:29:18.236Z,50.32
2019-03-29T22:32:22.739Z,50.44
2019-03-29T22:35:14.443Z,50.28
2019-03-29T22:37:45.424Z,50.60
2019-03-29T22:40:16.558Z,50.80
2019-03-29T22:42:47.542Z,50.98
2019-03-29T22:45:18.772Z,51.17
2019-03-29T22:47:49.744Z,51.17
2019-03-29T22:50:20.764Z,51.18
2019-03-29T22:52:54.403Z,51.09
2019-03-29T22:55:24.488Z,51.54
2019-03-29T22:57:59.318Z,51.44
2019-03-29T23:00:44.193Z,50.96
2019-03-29T23:03:15.379Z,51.37
2019-03-29T23:05:46.512Z,52.02
2019-03-29T23:08:17.492Z,52.24
2019-03-29T23:10:48.510Z,52.66
2019-03-29T23:13:19.483Z,52.42
2019-03-29T23:15:50.518Z,52.86
2019-03-29T23:18:21.505Z,53.47
2019-03-29T23:20:52.528Z,52.99
2019-03-29T23:23:23.522Z,53.19
2019-03-29T23:25:54.497Z,53.00
2019-03-29T23:28:25.510Z,53.10
2019-03-29T23:30:56.499Z,53.07
2019-03-29T23:33:27.546Z,53.06
2019-03-29T23:35:58.581Z,53.08
2019-03-29T23:38:29.564Z,53.19
2019-03-29T23:41:00.638Z,53.01
2019-03-29T23:43:31.637Z,53.14
2019-03-29T23:46:02.655Z,53.23
2019-03-29T23:48:33.635Z,53.08
2019-03-29T23:51:04.752Z,52.63
2019-03-29T23:53:35.746Z,52.65
2019-03-29T23:56:06.761Z,52.77
2019-03-29T23:58:37.758Z,52.42
